This is the latest recevied weather packets stored in our database for station/object KE8WMS. If no packets are shown the sender has not sent any weather packets the latest 10 day(s).
| Time | Temp. | Humidity | Pressure | Rain* | Wind** | Luminosity | Snow |
|---|---|---|---|---|---|---|---|
| 1788011856 | 21.67° C | 62% | 1019.9 hPa | 0 mm | - | 403 W/m² | - |
| 1788011555 | 21.11° C | 65% | 1020.1 hPa | 0 mm | - | 197 W/m² | - |
| 1788011251 | 20.56° C | 67% | 1019.7 hPa | 0 mm | - | 87 W/m² | - |
| 1788010950 | 20° C | 68% | 1019.8 hPa | 0 mm | - | 50 W/m² | - |
| 1788010645 | 19.44° C | 73% | 1019.7 hPa | 0 mm | - | 52 W/m² | - |
| 1788010343 | 18.89° C | 73% | 1019.5 hPa | 0 mm | - | 52 W/m² | - |
| 1788010043 | 18.89° C | 75% | 1019.6 hPa | 0 mm | - | 46 W/m² | - |
| 1788009738 | 18.33° C | 73% | 1019.6 hPa | 0 mm | - | 46 W/m² | - |
| 1788009436 | 18.33° C | 74% | 1019.8 hPa | 0 mm | - | 44 W/m² | - |
| 1788009131 | 17.78° C | 76% | 1019.8 hPa | 0 mm | - | 43 W/m² | - |
| 1788008827 | 17.22° C | 76% | 1019.9 hPa | 0 mm | - | 42 W/m² | - |
| 1788008527 | 16.67° C | 78% | 1019.8 hPa | 0 mm | - | 66 W/m² | - |
| 1788008224 | 16.67° C | 78% | 1019.7 hPa | 0 mm | - | 44 W/m² | - |
| 1788007922 | 16.67° C | 78% | 1019.7 hPa | 0 mm | - | 40 W/m² | - |
| 1788007622 | 16.11° C | 79% | 1019.5 hPa | 0 mm | - | 39 W/m² | - |
| 1788007321 | 16.11° C | 79% | 1019.6 hPa | 0 mm | - | 38 W/m² | - |
| 1788007016 | 15.56° C | 80% | 1019.5 hPa | 0 mm | - | 37 W/m² | - |
| 1788006710 | 15.56° C | 80% | 1019.9 hPa | 0 mm | - | 36 W/m² | - |
| 1788006405 | 15° C | 82% | 1019.7 hPa | 0 mm | - | 35 W/m² | - |
| 1788006104 | 15° C | 83% | 1019.7 hPa | 0 mm | - | 34 W/m² | - |
| 1788005804 | 14.44° C | 84% | 1019.4 hPa | 0 mm | - | 33 W/m² | - |
| 1788005499 | 14.44° C | 84% | 1019.4 hPa | 0 mm | - | 32 W/m² | - |
| 1788005198 | 14.44° C | 85% | 1019.6 hPa | 0 mm | - | 31 W/m² | - |
| 1788004898 | 13.89° C | 86% | 1019.5 hPa | 0 mm | - | 29 W/m² | - |
| 1788004598 | 13.89° C | 86% | 1019.6 hPa | 0 mm | - | 28 W/m² | - |
* Rain latest hour (hover to see other rain measurements)
** Current wind speed in m/s (hover to see current wind gust speed)